createdAt,value
2022-12-28T00:03:33.928Z,49.88
2022-12-28T00:08:35.672Z,50.07
2022-12-28T00:13:37.556Z,50.07
2022-12-28T00:18:39.104Z,49.92
2022-12-28T00:23:40.610Z,49.89
2022-12-28T00:28:42.164Z,49.57
2022-12-28T00:33:44.341Z,50.04
2022-12-28T00:38:47.336Z,50.19
2022-12-28T00:43:48.988Z,50.30
2022-12-28T00:48:50.545Z,49.96
2022-12-28T00:53:52.112Z,50.35
2022-12-28T00:58:59.166Z,50.22
2022-12-28T01:04:00.914Z,49.92
2022-12-28T01:09:02.629Z,50.24
2022-12-28T01:14:04.307Z,50.47
2022-12-28T01:19:07.390Z,50.34
2022-12-28T01:24:10.364Z,50.10
2022-12-28T01:29:11.899Z,50.72
2022-12-28T01:34:13.455Z,50.18
2022-12-28T01:39:14.953Z,50.57
2022-12-28T01:44:16.443Z,50.80
2022-12-28T01:49:37.031Z,50.74
2022-12-28T01:54:51.997Z,50.29
2022-12-28T02:00:06.164Z,50.09
2022-12-28T02:05:14.837Z,50.84
2022-12-28T02:10:41.664Z,50.32
2022-12-28T02:15:39.345Z,50.03
2022-12-28T02:20:55.545Z,50.04
2022-12-28T02:26:33.137Z,50.56
2022-12-28T02:31:41.056Z,50.47
2022-12-28T02:36:49.766Z,50.55
2022-12-28T02:41:52.167Z,50.09
2022-12-28T02:47:12.431Z,50.73
2022-12-28T02:52:23.426Z,51.23
2022-12-28T02:57:24.892Z,50.74
2022-12-28T03:02:34.760Z,50.82
2022-12-28T03:08:00.876Z,50.66
2022-12-28T03:13:06.420Z,50.48
2022-12-28T03:18:34.733Z,50.92
2022-12-28T03:23:59.069Z,50.80
2022-12-28T03:29:23.558Z,51.09
2022-12-28T03:34:25.371Z,51.10
2022-12-28T03:40:01.100Z,51.19
2022-12-28T03:45:45.948Z,51.04
2022-12-28T03:50:50.915Z,51.06
2022-12-28T03:55:53.179Z,51.05
2022-12-28T04:00:55.467Z,51.63
2022-12-28T04:05:57.972Z,51.09
2022-12-28T04:11:01.197Z,50.85
2022-12-28T04:16:08.472Z,51.30
2022-12-28T04:21:13.539Z,50.93
2022-12-28T04:26:18.658Z,51.23
2022-12-28T04:31:22.872Z,50.87
2022-12-28T04:36:31.275Z,51.15
2022-12-28T04:41:35.189Z,51.54
2022-12-28T04:46:36.807Z,51.11
2022-12-28T04:51:38.390Z,51.51
2022-12-28T04:56:40.412Z,51.31
2022-12-28T05:01:42.100Z,51.57
2022-12-28T05:06:43.729Z,51.37
2022-12-28T05:11:45.260Z,51.55
2022-12-28T05:16:50.982Z,51.95
2022-12-28T05:21:52.473Z,51.53
2022-12-28T05:26:54.024Z,51.86
2022-12-28T05:31:55.698Z,52.00
2022-12-28T05:36:57.261Z,51.80
2022-12-28T05:42:00.796Z,52.01
2022-12-28T05:47:02.425Z,52.18
2022-12-28T05:52:04.051Z,52.03
2022-12-28T05:57:05.568Z,52.13
2022-12-28T06:02:07.165Z,51.82
2022-12-28T06:07:08.748Z,51.88
2022-12-28T06:12:10.227Z,51.86
2022-12-28T06:17:11.745Z,51.61
2022-12-28T06:22:13.223Z,52.01
2022-12-28T06:27:14.767Z,51.78
2022-12-28T06:32:16.275Z,52.03
2022-12-28T06:37:17.748Z,52.08
2022-12-28T06:42:19.282Z,52.22
2022-12-28T06:47:20.846Z,52.49
2022-12-28T06:52:22.362Z,52.49
2022-12-28T06:57:23.867Z,52.65
2022-12-28T07:02:25.493Z,52.41
2022-12-28T07:07:27.133Z,52.86
2022-12-28T07:12:28.604Z,52.79
2022-12-28T07:17:30.110Z,53.21
2022-12-28T07:22:31.608Z,53.03
2022-12-28T07:27:34.887Z,53.05
2022-12-28T07:32:37.911Z,53.51
2022-12-28T07:37:39.465Z,53.05
2022-12-28T07:42:41.024Z,53.21
2022-12-28T07:47:42.622Z,53.44
2022-12-28T07:52:44.455Z,53.39
2022-12-28T07:57:45.963Z,53.57
2022-12-28T08:02:47.543Z,53.23
2022-12-28T08:07:49.110Z,53.47
2022-12-28T08:12:50.634Z,52.82
2022-12-28T08:17:54.171Z,53.21
2022-12-28T08:22:55.724Z,53.39
2022-12-28T08:27:57.456Z,53.08
2022-12-28T08:32:58.965Z,53.98
2022-12-28T08:38:00.609Z,53.94
2022-12-28T08:43:02.595Z,53.58
2022-12-28T08:48:04.670Z,53.79
2022-12-28T08:53:06.294Z,53.96
2022-12-28T08:58:08.042Z,54.10
2022-12-28T09:03:09.830Z,53.77
2022-12-28T09:08:11.478Z,54.33
2022-12-28T09:13:13.021Z,54.28
2022-12-28T09:18:14.615Z,54.27
2022-12-28T09:23:16.389Z,54.58
2022-12-28T09:28:18.133Z,54.28
2022-12-28T09:34:05.514Z,54.44
2022-12-28T09:39:03.108Z,54.68
2022-12-28T09:44:17.079Z,54.94
2022-12-28T09:49:25.598Z,54.54
2022-12-28T09:54:27.151Z,54.38
2022-12-28T09:59:34.552Z,54.65
2022-12-28T10:04:37.784Z,54.54
2022-12-28T10:09:39.475Z,54.74
2022-12-28T10:14:41.545Z,54.67
2022-12-28T10:19:48.141Z,54.96
2022-12-28T10:24:50.335Z,54.89
2022-12-28T10:29:52.832Z,55.11
2022-12-28T10:35:02.179Z,55.12
2022-12-28T10:40:09.762Z,55.27
2022-12-28T10:45:20.277Z,55.20
2022-12-28T10:50:38.003Z,55.35
2022-12-28T10:55:40.023Z,55.15
2022-12-28T11:00:44.569Z,55.10
2022-12-28T11:05:57.322Z,55.49
2022-12-28T11:10:59.217Z,55.65
2022-12-28T11:16:00.920Z,55.79
2022-12-28T11:21:02.504Z,55.65
2022-12-28T11:26:04.254Z,55.60
2022-12-28T11:31:07.962Z,55.23
2022-12-28T11:36:23.096Z,55.71
2022-12-28T11:41:31.799Z,55.67
2022-12-28T11:46:34.868Z,55.83
2022-12-28T11:51:37.133Z,55.30
2022-12-28T11:56:44.684Z,55.40
2022-12-28T12:01:47.190Z,55.45
2022-12-28T12:06:48.738Z,55.03
2022-12-28T12:11:52.942Z,55.21
2022-12-28T12:17:03.534Z,55.23
2022-12-28T12:22:12.729Z,55.08
2022-12-28T12:27:32.360Z,54.82
2022-12-28T12:32:43.466Z,54.58
2022-12-28T12:38:13.433Z,54.75
2022-12-28T12:43:39.387Z,54.66
2022-12-28T12:49:12.587Z,54.53
2022-12-28T12:54:17.875Z,54.96
2022-12-28T12:59:35.049Z,54.79
2022-12-28T13:04:40.148Z,54.67
2022-12-28T13:09:42.587Z,54.46
2022-12-28T13:15:09.107Z,54.42
2022-12-28T13:20:21.483Z,54.64
2022-12-28T13:25:26.573Z,54.21
2022-12-28T13:30:29.327Z,54.56
2022-12-28T13:35:33.230Z,54.27
2022-12-28T13:40:37.706Z,54.16
2022-12-28T13:45:39.577Z,54.01
2022-12-28T13:50:42.398Z,53.89
2022-12-28T13:55:48.791Z,53.90
2022-12-28T14:00:52.621Z,53.86
2022-12-28T14:06:00.169Z,53.45
2022-12-28T14:11:03.056Z,53.32
2022-12-28T14:16:05.598Z,53.38
2022-12-28T14:21:08.274Z,53.37
2022-12-28T14:26:22.428Z,53.12
2022-12-28T14:31:30.093Z,53.11
2022-12-28T14:36:36.172Z,52.92
2022-12-28T14:41:45.548Z,52.71
2022-12-28T14:46:47.315Z,52.61
2022-12-28T14:51:49.052Z,52.70
2022-12-28T14:56:59.468Z,52.51
2022-12-28T15:02:01.224Z,52.64
2022-12-28T15:07:08.254Z,52.48
2022-12-28T15:12:12.974Z,52.69
2022-12-28T15:17:15.800Z,52.43
2022-12-28T15:22:18.610Z,52.71
2022-12-28T15:27:20.279Z,52.66
2022-12-28T15:32:21.843Z,52.34
2022-12-28T15:37:23.475Z,52.46
2022-12-28T15:42:25.021Z,52.37
2022-12-28T15:47:26.568Z,52.21
2022-12-28T15:52:28.100Z,52.29
2022-12-28T15:57:29.800Z,52.15
2022-12-28T16:02:31.663Z,51.85
2022-12-28T16:07:33.358Z,52.07
2022-12-28T16:12:35.220Z,52.04
2022-12-28T16:17:46.900Z,52.00
2022-12-28T16:22:53.725Z,52.18
2022-12-28T16:27:55.274Z,51.99
2022-12-28T16:32:56.820Z,52.24
2022-12-28T16:37:58.313Z,52.07
2022-12-28T16:43:05.089Z,51.92
2022-12-28T16:48:07.957Z,52.06
2022-12-28T16:53:10.189Z,52.07
2022-12-28T16:58:11.713Z,51.72
2022-12-28T17:03:13.391Z,51.75
2022-12-28T17:08:14.917Z,51.78
2022-12-28T17:13:18.342Z,52.10
2022-12-28T17:18:19.868Z,52.19
2022-12-28T17:23:21.427Z,52.34
2022-12-28T17:28:23.703Z,52.20
2022-12-28T17:33:25.219Z,52.47
2022-12-28T17:38:26.789Z,52.22
2022-12-28T17:43:28.472Z,52.31
2022-12-28T17:48:30.408Z,52.05
2022-12-28T17:53:32.345Z,52.05
2022-12-28T17:58:34.417Z,52.43
2022-12-28T18:03:36.560Z,52.03
2022-12-28T18:08:38.301Z,51.91
2022-12-28T18:13:45.723Z,52.14
2022-12-28T18:18:47.377Z,51.89
2022-12-28T18:23:51.520Z,51.82
2022-12-28T18:28:54.539Z,51.98
2022-12-28T18:33:56.191Z,51.85
2022-12-28T18:38:57.707Z,52.02
2022-12-28T18:44:01.572Z,51.84
2022-12-28T18:49:03.137Z,52.12
2022-12-28T18:54:05.607Z,52.19
2022-12-28T18:59:07.137Z,52.22
2022-12-28T19:04:09.961Z,52.54
2022-12-28T19:09:12.491Z,52.58
2022-12-28T19:14:15.393Z,52.27
2022-12-28T19:19:18.007Z,52.60
2022-12-28T19:24:19.883Z,52.19
2022-12-28T19:29:21.464Z,52.46
2022-12-28T19:34:23.044Z,52.27
2022-12-28T19:39:24.620Z,52.59
2022-12-28T19:44:26.287Z,52.08
2022-12-28T19:49:27.812Z,52.78
2022-12-28T19:54:29.566Z,52.17
2022-12-28T19:59:31.135Z,52.39
2022-12-28T20:04:32.793Z,52.57
2022-12-28T20:09:34.905Z,52.66
2022-12-28T20:14:36.490Z,52.81
2022-12-28T20:19:38.546Z,52.66
2022-12-28T20:24:40.085Z,52.67
2022-12-28T20:29:41.629Z,52.87
2022-12-28T20:34:43.203Z,52.72
2022-12-28T20:39:44.765Z,52.34
2022-12-28T20:44:46.323Z,52.11
2022-12-28T20:49:47.879Z,52.33
2022-12-28T20:54:49.447Z,51.99
2022-12-28T20:59:51.071Z,52.12
2022-12-28T21:04:52.630Z,51.75
2022-12-28T21:09:54.234Z,51.94
2022-12-28T21:14:55.751Z,51.65
2022-12-28T21:19:57.317Z,51.72
2022-12-28T21:24:58.867Z,51.64
2022-12-28T21:30:00.403Z,52.10
2022-12-28T21:35:02.053Z,51.95
2022-12-28T21:40:08.953Z,51.51
2022-12-28T21:45:10.990Z,52.19
2022-12-28T21:50:12.605Z,51.56
2022-12-28T21:55:32.935Z,51.85
2022-12-28T22:00:53.184Z,51.47
2022-12-28T22:06:02.629Z,51.31
2022-12-28T22:11:22.834Z,51.44
2022-12-28T22:16:24.787Z,51.44
2022-12-28T22:21:27.665Z,51.47
2022-12-28T22:26:29.227Z,51.42
2022-12-28T22:31:30.948Z,51.76
2022-12-28T22:36:32.981Z,51.67
2022-12-28T22:41:34.582Z,51.42
2022-12-28T22:46:36.299Z,51.35
2022-12-28T22:51:38.182Z,51.70
2022-12-28T22:56:39.701Z,51.90
2022-12-28T23:01:41.607Z,51.99
2022-12-28T23:06:43.280Z,51.84
2022-12-28T23:11:44.909Z,52.00
2022-12-28T23:16:47.162Z,52.09
2022-12-28T23:22:07.450Z,51.82
2022-12-28T23:27:21.678Z,52.09
2022-12-28T23:32:23.480Z,51.87
2022-12-28T23:37:25.223Z,51.90
2022-12-28T23:42:27.057Z,51.80
2022-12-28T23:47:28.663Z,52.01
2022-12-28T23:52:31.034Z,52.15
2022-12-28T23:57:33.022Z,51.95
